Airfield :
LOGIN :

Register | Disclaimer

   EN    FR    IT 

 










Legend :    VFR   Marginal VFR   IFR   Intensive IFR   Very Intensive IFR
Visi :
Ceiling :
>= 8 km
>= 3000ft
5 to 8 km
1000 to 3000 ft
1500m to 5 km
500 to 1000 ft
800 to 1500m
200 to 500 ft
< 800m
< 200 ft
Symbols :   Thunderstorms  Fog  Heavy snow  Heavy precipitations  Wind > 20 kt
SIGMETs :     Misc.  Thunderstorms  Icing  Turbulence  Mountain Waves  Volcanic Ashes






- Airport Elevation : 65 ft
- IATA code : PMO


LICJ - Palermo Punta Raisi

CURRENT METAR :
  • 172150Z 33010KT 9999 FEW040 14/08 Q1028

EXPIRED METARs :
  • 172120Z 32009KT 9999 FEW045 14/08 Q1028
  • 172050Z 32009KT 280V340 9999 FEW040 14/09 Q1028
  • 172020Z 28009KT 9999 FEW025 SCT040 14/08 Q1027
  • 171950Z 28008KT 9999 FEW040 13/08 Q1027
  • 171920Z 29007KT 9999 FEW045 14/08 Q1027

TAF TAF LICJ
Valid from the 17 at 18:00 until the 18 at 18:00 UTC


171700Z 1718/1818 34010KT 9999 SCT020
BECMG 1806/1808 04010KT



MET'MAP, your aeronautical weather chart ! - Copyright ORBIFLY December 2007 - Disclaimer

ORBIFLY MET'MAP TEAM :

Programming & Development : Alexandra Zaïnal
Concept & original design : Baudouin d'Aumeries
Assistance for programming : Marc-Olivier Méhu
Technical & hardware support : Manuel Goepfert

Contact : metmap@orbifly.com




SOURCES & CREDITS :

   NOAA